Time;durP1;ratioP1;P1;durP2;ratioP2;P2;SDS_P1;SDS_P2;PMS_P1;PMS_P2;Temp;Humidity;BMP_temperature;BMP_pressure;BME280_temperature;BME280_humidity;BME280_pressure;Samples;Min_cycle;Max_cycle;Signal;HPM_P1;HPM_P2
2023/06/21 00:00:47;;;;;;;18.23;14.18;;;20.50;99.90;;;;;;5072827;28;20125;-85
2023/06/21 00:03:12;;;;;;;15.43;13.65;;;20.50;99.90;;;;;;5073954;28;20450;-85
2023/06/21 00:05:38;;;;;;;16.88;15.18;;;20.50;99.90;;;;;;5055769;28;20042;-85
2023/06/21 00:08:07;;;;;;;16.80;14.98;;;20.50;99.90;;;;;;5072613;28;20445;-85
2023/06/21 00:10:33;;;;;;;17.20;15.32;;;20.50;99.90;;;;;;5072493;28;20036;-85
2023/06/21 00:12:59;;;;;;;16.63;15.02;;;20.50;99.90;;;;;;5056177;28;20043;-85
2023/06/21 00:15:25;;;;;;;17.67;15.95;;;20.50;99.90;;;;;;5073073;28;20032;-85
2023/06/21 00:17:51;;;;;;;16.70;15.00;;;20.40;99.90;;;;;;5072970;28;20135;-85
2023/06/21 00:20:17;;;;;;;16.27;14.57;;;20.40;99.90;;;;;;5056038;28;20040;-85
2023/06/21 00:22:47;;;;;;;17.70;16.05;;;20.40;99.90;;;;;;5072954;28;20044;-85
2023/06/21 00:25:14;;;;;;;17.35;15.38;;;20.40;99.90;;;;;;5056532;28;20383;-85
2023/06/21 00:27:42;;;;;;;18.33;16.48;;;20.30;99.90;;;;;;5056181;28;20033;-85
2023/06/21 00:30:08;;;;;;;18.25;16.10;;;20.30;99.90;;;;;;5055215;28;20067;-85
2023/06/21 00:32:33;;;;;;;16.90;15.30;;;20.30;99.90;;;;;;5071956;28;20037;-85
2023/06/21 00:34:59;;;;;;;17.63;15.93;;;20.30;99.90;;;;;;5072701;28;20040;-85
2023/06/21 00:37:26;;;;;;;17.27;15.57;;;20.30;99.90;;;;;;5056022;28;20059;-85
2023/06/21 00:39:52;;;;;;;17.40;14.95;;;20.30;99.90;;;;;;5055652;28;20045;-84
2023/06/21 00:42:18;;;;;;;17.80;15.90;;;20.30;99.90;;;;;;5056113;28;20047;-85
2023/06/21 00:44:43;;;;;;;18.15;16.40;;;20.20;99.90;;;;;;5055831;28;20036;-85
2023/06/21 00:47:09;;;;;;;17.95;16.20;;;20.20;99.90;;;;;;5055881;28;20037;-85
2023/06/21 00:49:35;;;;;;;18.15;16.35;;;20.20;99.90;;;;;;5055739;28;20510;-84
2023/06/21 00:52:02;;;;;;;18.70;16.80;;;20.20;99.90;;;;;;5072343;28;20555;-85
2023/06/21 00:54:34;;;;;;;17.67;15.93;;;20.10;99.90;;;;;;5072400;28;20510;-85
2023/06/21 00:57:02;;;;;;;18.45;16.65;;;20.10;99.90;;;;;;5055621;28;20063;-85
2023/06/21 00:59:28;;;;;;;19.20;17.33;;;20.00;99.90;;;;;;5072347;28;20040;-85
2023/06/21 01:01:58;;;;;;;18.77;16.90;;;20.00;99.90;;;;;;5072121;28;20037;-85
2023/06/21 01:04:25;;;;;;;19.70;17.80;;;20.00;99.90;;;;;;5072261;28;20045;-85
2023/06/21 01:07:21;;;;;;;19.20;17.38;;;19.90;99.90;;;;;;5072002;28;20036;-85
2023/06/21 01:10:32;;;;;;;21.02;19.02;;;19.90;99.90;;;;;;5071865;28;20040;-85
2023/06/21 01:13:25;;;;;;;20.90;18.92;;;19.90;99.90;;;;;;4977824;28;20046;-85
2023/06/21 01:15:58;;;;;;;21.80;19.80;;;19.90;99.90;;;;;;4991176;28;20068;-85
2023/06/21 01:18:26;;;;;;;21.95;19.77;;;19.80;99.90;;;;;;4994898;28;20431;-85
2023/06/21 01:20:57;;;;;;;21.95;19.83;;;19.80;99.90;;;;;;4994681;28;20104;-85
2023/06/21 01:23:51;;;;;;;22.40;20.30;;;19.80;99.90;;;;;;4994559;28;20107;-85
2023/06/21 01:26:47;;;;;;;22.55;20.45;;;19.80;99.90;;;;;;4994554;28;20042;-85
2023/06/21 01:29:16;;;;;;;23.35;21.05;;;19.80;99.90;;;;;;4994716;28;20038;-85
2023/06/21 01:31:45;;;;;;;23.52;21.33;;;19.70;99.90;;;;;;4980152;28;20035;-85
2023/06/21 01:34:12;;;;;;;24.10;21.70;;;19.70;99.90;;;;;;4974990;28;20042;-85
2023/06/21 01:36:39;;;;;;;24.17;21.88;;;19.70;99.90;;;;;;4974875;28;20097;-85
2023/06/21 01:39:08;;;;;;;23.65;21.45;;;19.70;99.90;;;;;;4958838;28;20065;-85
2023/06/21 01:41:35;;;;;;;25.00;22.65;;;19.70;99.90;;;;;;4974360;28;20053;-85
2023/06/21 01:44:05;;;;;;;24.80;22.60;;;19.70;99.90;;;;;;4974678;28;20057;-85
2023/06/21 01:46:31;;;;;;;24.58;22.38;;;19.60;99.90;;;;;;4974983;28;20113;-85
2023/06/21 01:49:00;;;;;;;27.08;24.52;;;19.60;99.90;;;;;;4984724;28;20384;-85
2023/06/21 01:51:26;;;;;;;25.90;23.52;;;19.60;99.90;;;;;;5050657;28;20040;-84
2023/06/21 01:53:52;;;;;;;27.08;24.45;;;19.60;99.90;;;;;;5051502;28;20510;-85
2023/06/21 01:56:18;;;;;;;27.75;25.25;;;19.60;99.90;;;;;;5051169;28;20033;-85
2023/06/21 01:58:48;;;;;;;28.25;25.65;;;19.50;99.90;;;;;;5051214;28;20064;-85
2023/06/21 02:01:15;;;;;;;27.63;24.73;;;19.50;99.90;;;;;;5050924;28;20037;-85
2023/06/21 02:03:47;;;;;;;29.02;26.30;;;19.50;99.90;;;;;;5051038;28;20036;-85
2023/06/21 02:06:13;;;;;;;;;;;19.50;99.90;;;;;;5051433;28;20102;-85
2023/06/21 02:08:41;;;;;;;29.27;26.65;;;19.40;99.90;;;;;;5051018;28;19916;-85
2023/06/21 02:11:07;;;;;;;30.13;27.30;;;19.40;99.90;;;;;;5050659;28;20045;-85
2023/06/21 02:13:33;;;;;;;30.67;27.90;;;19.40;99.90;;;;;;5051038;28;20167;-85
2023/06/21 02:15:59;;;;;;;31.13;28.10;;;19.40;99.90;;;;;;5050783;28;20558;-85
2023/06/21 02:18:24;;;;;;;33.20;30.10;;;19.40;99.90;;;;;;5050950;28;20395;-85
2023/06/21 02:20:52;;;;;;;31.20;28.35;;;19.40;99.90;;;;;;5050361;28;20083;-84
2023/06/21 02:23:17;;;;;;;33.38;30.17;;;19.40;99.90;;;;;;5050455;28;20048;-84
2023/06/21 02:25:43;;;;;;;36.08;32.80;;;19.40;99.90;;;;;;5051023;28;20040;-84
2023/06/21 02:28:09;;;;;;;36.80;33.30;;;19.40;99.90;;;;;;5050591;28;20087;-84
2023/06/21 02:30:34;;;;;;;38.13;34.67;;;19.40;99.90;;;;;;5050136;28;20094;-85
2023/06/21 02:33:00;;;;;;;41.10;37.30;;;19.40;99.90;;;;;;5050564;28;20033;-85
2023/06/21 02:35:26;;;;;;;38.25;34.67;;;19.40;99.90;;;;;;5050506;28;20592;-84
2023/06/21 02:37:52;;;;;;;39.63;36.08;;;19.40;99.90;;;;;;5050627;28;20135;-84
2023/06/21 02:40:17;;;;;;;38.67;35.17;;;19.40;99.90;;;;;;5050155;28;20041;-85
2023/06/21 02:42:43;;;;;;;37.60;34.20;;;19.40;99.90;;;;;;5050702;28;20410;-85
2023/06/21 02:45:09;;;;;;;39.55;35.92;;;19.40;99.90;;;;;;5050284;28;20124;-85
2023/06/21 02:47:35;;;;;;;39.90;36.33;;;19.30;99.90;;;;;;5033836;28;20037;-84
2023/06/21 02:50:02;;;;;;;40.15;36.45;;;19.30;99.90;;;;;;5033416;28;20041;-84
2023/06/21 02:52:27;;;;;;;39.20;35.80;;;19.30;99.90;;;;;;5050500;28;20395;-84
2023/06/21 02:54:53;;;;;;;39.17;35.55;;;19.30;99.90;;;;;;5032973;28;20483;-85
2023/06/21 02:57:19;;;;;;;40.80;36.97;;;19.20;99.90;;;;;;5033704;28;20045;-84
2023/06/21 02:59:45;;;;;;;40.05;36.33;;;19.20;99.90;;;;;;5049956;28;20591;-84
2023/06/21 03:02:11;;;;;;;37.30;34.03;;;19.20;99.90;;;;;;5050159;28;20128;-84
2023/06/21 03:04:37;;;;;;;39.15;35.72;;;19.20;99.90;;;;;;5050044;28;20056;-85
2023/06/21 03:07:05;;;;;;;41.22;37.53;;;19.10;99.90;;;;;;5050268;28;20041;-84
2023/06/21 03:09:31;;;;;;;39.92;36.20;;;19.10;99.90;;;;;;5050243;28;20048;-84
2023/06/21 03:11:57;;;;;;;39.95;36.35;;;19.10;99.90;;;;;;5050046;28;20037;-84
2023/06/21 03:14:23;;;;;;;38.13;34.72;;;19.10;99.90;;;;;;5049999;28;20037;-84
2023/06/21 03:16:49;;;;;;;40.95;37.15;;;19.00;99.90;;;;;;5033592;28;20041;-84
2023/06/21 03:19:16;;;;;;;39.58;36.08;;;19.00;99.90;;;;;;5049967;28;20051;-84
2023/06/21 03:21:41;;;;;;;38.63;35.10;;;19.00;99.90;;;;;;5050065;28;20067;-84
2023/06/21 03:24:07;;;;;;;40.17;36.58;;;19.00;99.90;;;;;;5033479;28;20697;-85
2023/06/21 03:26:35;;;;;;;41.70;37.90;;;19.00;99.90;;;;;;5033146;28;20045;-84
2023/06/21 03:29:02;;;;;;;40.70;37.00;;;19.00;99.90;;;;;;5049883;28;20124;-84
2023/06/21 03:31:28;;;;;;;41.60;37.88;;;19.00;99.90;;;;;;5049931;28;20422;-84
2023/06/21 03:33:54;;;;;;;42.25;38.30;;;19.00;99.90;;;;;;5049900;28;20041;-84
2023/06/21 03:36:20;;;;;;;41.38;37.45;;;19.00;99.90;;;;;;5050210;28;20044;-84
2023/06/21 03:38:46;;;;;;;42.38;38.47;;;19.00;99.90;;;;;;5049975;28;20719;-84
2023/06/21 03:41:11;;;;;;;41.35;37.67;;;19.00;99.90;;;;;;5049684;28;20135;-85
2023/06/21 03:43:37;;;;;;;41.15;37.30;;;19.00;99.90;;;;;;5049867;28;20086;-84
2023/06/21 03:46:03;;;;;;;43.42;39.22;;;18.90;99.90;;;;;;5049895;28;20085;-84
2023/06/21 03:48:28;;;;;;;41.70;37.83;;;18.90;99.90;;;;;;5049740;28;20126;-84
2023/06/21 03:50:54;;;;;;;41.00;37.30;;;18.90;99.90;;;;;;5049133;28;20044;-84
2023/06/21 03:53:19;;;;;;;42.35;38.58;;;18.90;99.90;;;;;;5049848;28;20044;-84
2023/06/21 03:55:45;;;;;;;45.20;40.95;;;18.90;99.90;;;;;;5050006;28;20052;-83
2023/06/21 03:58:12;;;;;;;43.88;39.88;;;18.90;99.90;;;;;;5033201;28;20048;-83
2023/06/21 04:00:38;;;;;;;44.53;40.55;;;18.90;99.90;;;;;;5049575;28;20044;-83
2023/06/21 04:03:04;;;;;;;44.63;40.63;;;18.90;99.90;;;;;;5049450;28;20472;-83
2023/06/21 04:05:29;;;;;;;45.03;40.83;;;18.90;99.90;;;;;;5050893;28;20041;-83
2023/06/21 04:07:55;;;;;;;44.40;40.40;;;18.90;99.90;;;;;;5053172;28;20041;-82
2023/06/21 04:10:20;;;;;;;34.10;25.20;;;18.90;99.90;;;;;;5053254;28;20029;-83
2023/06/21 04:12:46;;;;;;;41.72;37.83;;;18.90;99.90;;;;;;5036390;28;20494;-83
2023/06/21 04:15:12;;;;;;;44.47;40.50;;;18.90;99.90;;;;;;5053176;28;20079;-83
2023/06/21 04:17:38;;;;;;;43.70;39.80;;;18.90;99.90;;;;;;5052931;28;20049;-83
2023/06/21 04:20:10;;;;;;;44.42;40.47;;;18.90;99.90;;;;;;5052753;28;20041;-83
2023/06/21 04:22:37;;;;;;;45.97;41.78;;;18.90;99.90;;;;;;5053019;28;20560;-83
2023/06/21 04:25:03;;;;;;;45.78;41.38;;;18.90;99.90;;;;;;5052871;28;20510;-83
2023/06/21 04:27:29;;;;;;;46.20;42.00;;;18.90;99.90;;;;;;5036340;28;20040;-83
2023/06/21 04:29:54;;;;;;;47.53;43.17;;;19.00;99.90;;;;;;5052799;28;20079;-83
2023/06/21 04:32:20;;;;;;;45.75;41.53;;;19.00;99.90;;;;;;5036107;28;20482;-83
2023/06/21 04:34:48;;;;;;;47.47;43.13;;;19.00;99.90;;;;;;5052927;28;20041;-83
2023/06/21 04:37:14;;;;;;;49.47;44.88;;;19.00;99.90;;;;;;5053019;28;20048;-83
2023/06/21 04:39:39;;;;;;;47.72;43.28;;;19.00;99.90;;;;;;5052350;28;20047;-83
2023/06/21 04:42:05;;;;;;;47.17;42.85;;;19.00;99.90;;;;;;5052573;28;20052;-82
2023/06/21 04:44:31;;;;;;;48.45;43.88;;;19.00;99.90;;;;;;5052605;28;20041;-82
2023/06/21 04:47:00;;;;;;;50.42;45.67;;;19.00;99.90;;;;;;5052221;28;20102;-83
2023/06/21 04:49:26;;;;;;;49.92;45.05;;;19.00;99.90;;;;;;5052632;28;20033;-82
2023/06/21 04:51:58;;;;;;;49.70;45.08;;;19.00;99.90;;;;;;5052258;28;20483;-83
2023/06/21 04:54:28;;;;;;;53.72;48.65;;;19.00;99.90;;;;;;5052770;28;20047;-83
2023/06/21 04:56:54;;;;;;;49.53;45.00;;;19.10;99.90;;;;;;5052320;28;20049;-83
2023/06/21 04:59:19;;;;;;;50.83;46.03;;;19.10;99.90;;;;;;5052225;28;20033;-82
2023/06/21 05:01:45;;;;;;;50.45;45.55;;;19.10;99.90;;;;;;5051957;28;20090;-83
2023/06/21 05:04:11;;;;;;;51.17;46.38;;;19.10;99.90;;;;;;5035561;28;20071;-83
2023/06/21 05:06:37;;;;;;;49.03;44.25;;;19.10;99.90;;;;;;5035557;28;20049;-82
2023/06/21 05:09:04;;;;;;;49.90;45.08;;;19.10;99.90;;;;;;5035518;28;20079;-82
2023/06/21 05:11:29;;;;;;;50.50;45.70;;;19.20;99.90;;;;;;5052031;28;20033;-83
2023/06/21 05:13:55;;;;;;;50.65;45.72;;;19.10;99.90;;;;;;5035147;28;20048;-83
2023/06/21 05:16:21;;;;;;;52.20;47.15;;;19.20;99.90;;;;;;5035036;28;20036;-82
2023/06/21 05:18:46;;;;;;;51.35;46.35;;;19.20;99.90;;;;;;5051393;28;20139;-83
2023/06/21 05:21:12;;;;;;;50.88;45.97;;;19.30;99.90;;;;;;5051606;28;20045;-82
2023/06/21 05:23:38;;;;;;;51.10;46.33;;;19.20;99.90;;;;;;5051867;28;20037;-83
2023/06/21 05:26:03;;;;;;;52.20;47.13;;;19.30;99.90;;;;;;5058908;28;20086;-82
2023/06/21 05:28:29;;;;;;;52.58;47.58;;;19.30;99.90;;;;;;5071604;28;20037;-83
2023/06/21 05:30:55;;;;;;;52.58;47.40;;;19.30;99.90;;;;;;5071461;28;20482;-83
2023/06/21 05:33:20;;;;;;;49.92;45.20;;;19.30;99.90;;;;;;5071654;28;20505;-83
2023/06/21 05:35:46;;;;;;;52.97;47.92;;;19.30;99.90;;;;;;5054874;28;20166;-82
2023/06/21 05:38:12;;;;;;;38.40;25.85;;;19.30;99.90;;;;;;5071532;28;20047;-83
2023/06/21 05:40:37;;;;;;;51.03;46.42;;;19.30;99.90;;;;;;5054825;28;20040;-83
2023/06/21 05:43:04;;;;;;;50.75;46.05;;;19.30;99.90;;;;;;5054601;28;20491;-83
2023/06/21 05:45:29;;;;;;;51.28;46.58;;;19.30;99.90;;;;;;5071429;28;20044;-83
2023/06/21 05:47:57;;;;;;;54.28;49.17;;;19.30;99.90;;;;;;5071155;28;20123;-83
2023/06/21 05:50:23;;;;;;;49.85;45.13;;;19.40;99.90;;;;;;5054688;28;20577;-83
2023/06/21 05:52:48;;;;;;;50.80;46.00;;;19.40;99.90;;;;;;5071082;28;20116;-83
2023/06/21 05:55:14;;;;;;;48.78;44.38;;;19.40;99.90;;;;;;5071513;28;20387;-83
2023/06/21 05:57:40;;;;;;;50.08;45.20;;;19.40;99.90;;;;;;5071104;28;20072;-83
2023/06/21 06:00:09;;;;;;;51.10;46.30;;;19.50;99.90;;;;;;5070806;28;20055;-83
2023/06/21 06:02:35;;;;;;;52.53;47.58;;;19.50;99.90;;;;;;5071343;28;20044;-83
2023/06/21 06:05:01;;;;;;;51.63;46.58;;;19.50;99.90;;;;;;5054302;28;20501;-83
2023/06/21 06:07:26;;;;;;;50.30;45.70;;;19.50;99.90;;;;;;5070821;28;20183;-83
2023/06/21 06:09:52;;;;;;;49.53;44.83;;;19.50;99.90;;;;;;5054099;28;20072;-83
2023/06/21 06:12:21;;;;;;;50.10;45.35;;;19.60;99.90;;;;;;5070643;28;20533;-82
2023/06/21 06:14:47;;;;;;;49.22;44.55;;;19.60;99.90;;;;;;5054216;28;20068;-83
2023/06/21 06:17:12;;;;;;;48.33;43.83;;;19.70;99.90;;;;;;5070654;28;20090;-83
2023/06/21 06:19:38;;;;;;;46.25;42.00;;;19.70;99.90;;;;;;5054103;28;20123;-83
2023/06/21 06:22:03;;;;;;;48.10;43.58;;;19.80;99.90;;;;;;5070914;28;20505;-83
2023/06/21 06:24:29;;;;;;;44.78;40.58;;;19.80;99.90;;;;;;5070881;28;20045;-83
2023/06/21 06:26:55;;;;;;;41.47;37.65;;;19.80;99.90;;;;;;5070463;28;20041;-83
2023/06/21 06:29:21;;;;;;;42.58;38.67;;;19.90;99.90;;;;;;5070860;28;20509;-83
2023/06/21 06:31:47;;;;;;;46.88;42.40;;;19.90;99.90;;;;;;5053990;28;20044;-83
2023/06/21 06:34:12;;;;;;;45.50;41.20;;;19.90;99.90;;;;;;5070762;28;20392;-83
2023/06/21 06:36:38;;;;;;;43.75;39.53;;;20.00;99.90;;;;;;5053998;28;20086;-83
2023/06/21 06:39:06;;;;;;;40.42;36.67;;;20.00;99.90;;;;;;5070810;28;20044;-83
2023/06/21 06:41:31;;;;;;;41.25;37.55;;;20.10;99.90;;;;;;5070389;28;20063;-83
2023/06/21 06:43:57;;;;;;;41.67;37.78;;;20.10;99.90;;;;;;5070466;28;20505;-83
2023/06/21 06:46:23;;;;;;;40.80;37.00;;;20.20;99.90;;;;;;5053796;28;20044;-83
2023/06/21 06:48:49;;;;;;;37.13;33.63;;;20.20;99.90;;;;;;5070751;28;20383;-83
2023/06/21 06:51:14;;;;;;;39.67;35.95;;;20.10;99.90;;;;;;5070105;28;20448;-83
2023/06/21 06:53:41;;;;;;;38.85;35.35;;;20.20;99.90;;;;;;5070457;28;20045;-83
2023/06/21 06:56:07;;;;;;;39.38;35.67;;;20.20;99.90;;;;;;5053668;28;20047;-83
2023/06/21 06:58:35;;;;;;;38.72;35.13;;;20.30;99.90;;;;;;5070379;28;20128;-83
2023/06/21 07:01:03;;;;;;;37.22;33.72;;;20.40;99.90;;;;;;5069983;28;20049;-83
2023/06/21 07:03:29;;;;;;;34.25;30.90;;;20.50;99.90;;;;;;5053637;28;20079;-83
2023/06/21 07:05:55;;;;;;;34.60;31.50;;;20.40;99.90;;;;;;5070648;28;20041;-83
2023/06/21 07:08:20;;;;;;;37.67;33.95;;;20.40;99.90;;;;;;5070206;28;20044;-83
2023/06/21 07:10:46;;;;;;;36.25;32.95;;;20.50;99.90;;;;;;5069303;28;20045;-83
2023/06/21 07:13:12;;;;;;;34.80;31.55;;;20.50;99.90;;;;;;5069249;28;20029;-84
2023/06/21 07:15:37;;;;;;;36.13;32.63;;;20.50;99.90;;;;;;5068787;28;20037;-83
2023/06/21 07:18:03;;;;;;;36.47;32.97;;;20.50;99.90;;;;;;5069372;28;20516;-83
2023/06/21 07:20:30;;;;;;;34.38;31.17;;;20.60;99.90;;;;;;5069391;28;20036;-84
2023/06/21 07:22:56;;;;;;;32.28;29.38;;;20.60;99.90;;;;;;5069526;28;20086;-83
2023/06/21 07:25:22;;;;;;;33.55;30.45;;;20.70;99.90;;;;;;5069578;28;20045;-83
2023/06/21 07:27:48;;;;;;;33.42;30.40;;;20.70;99.90;;;;;;5053289;28;20414;-83
2023/06/21 07:30:13;;;;;;;32.05;29.17;;;20.80;99.90;;;;;;5053095;28;20032;-84
2023/06/21 07:32:39;;;;;;;31.88;28.98;;;20.80;99.90;;;;;;5070020;28;20033;-83
2023/06/21 07:35:05;;;;;;;32.60;29.38;;;20.80;99.90;;;;;;5070020;28;20129;-83
2023/06/21 07:37:31;;;;;;;31.33;28.35;;;20.90;99.90;;;;;;5070304;28;20048;-83
2023/06/21 07:39:57;;;;;;;30.73;27.83;;;20.90;99.90;;;;;;5069978;28;20040;-83
2023/06/21 07:42:23;;;;;;;31.35;28.38;;;20.90;99.90;;;;;;5074052;28;20040;-83
2023/06/21 07:44:53;;;;;;;32.10;29.20;;;21.00;99.90;;;;;;5056988;28;20140;-83
2023/06/21 07:47:19;;;;;;;32.05;29.15;;;21.10;99.90;;;;;;5073931;28;20440;-84
2023/06/21 07:49:45;;;;;;;31.45;28.65;;;21.10;99.90;;;;;;5073410;28;20032;-83
2023/06/21 07:52:11;;;;;;;26.90;24.42;;;21.20;99.90;;;;;;5073556;28;20032;-84
2023/06/21 07:54:37;;;;;;;29.85;27.15;;;21.20;99.90;;;;;;5073621;28;20097;-83
2023/06/21 07:57:03;;;;;;;28.73;26.10;;;21.20;99.90;;;;;;5056990;28;20124;-83
2023/06/21 07:59:29;;;;;;;26.48;23.98;;;21.30;99.90;;;;;;5073541;28;20044;-83
2023/06/21 08:01:54;;;;;;;25.75;23.35;;;21.30;99.90;;;;;;5073495;28;20036;-83
2023/06/21 08:04:20;;;;;;;24.35;22.05;;;21.40;99.90;;;;;;5073436;28;20040;-83
2023/06/21 08:06:45;;;;;;;21.83;19.63;;;21.50;99.90;;;;;;5073327;28;20395;-83
2023/06/21 08:09:11;;;;;;;23.50;21.10;;;21.60;99.90;;;;;;5073296;28;20040;-83
2023/06/21 08:11:37;;;;;;;23.67;21.48;;;21.60;99.90;;;;;;5072967;28;20131;-83
2023/06/21 08:14:02;;;;;;;26.13;23.73;;;21.70;99.90;;;;;;5073190;28;20455;-83
2023/06/21 08:16:28;;;;;;;23.08;20.77;;;21.70;99.90;;;;;;5056790;28;20040;-83
2023/06/21 08:18:53;;;;;;;23.02;20.73;;;21.80;99.90;;;;;;5073131;28;20597;-84
2023/06/21 08:21:19;;;;;;;18.88;17.08;;;21.80;99.90;;;;;;5072693;28;20044;-83
2023/06/21 08:23:44;;;;;;;21.80;19.60;;;21.80;99.90;;;;;;5056406;28;20126;-83
2023/06/21 08:26:10;;;;;;;22.23;20.02;;;21.90;99.90;;;;;;5072994;28;20055;-83
2023/06/21 08:28:36;;;;;;;22.80;20.55;;;21.90;99.90;;;;;;5072914;28;20040;-83
2023/06/21 08:31:02;;;;;;;19.95;17.85;;;21.90;99.90;;;;;;5072622;28;20513;-84
2023/06/21 08:33:28;;;;;;;20.00;18.00;;;21.90;99.90;;;;;;5056283;28;20462;-83
2023/06/21 08:35:53;;;;;;;20.25;18.15;;;22.00;99.90;;;;;;5072895;28;20041;-83
2023/06/21 08:38:19;;;;;;;21.90;19.70;;;22.00;99.90;;;;;;5072726;28;20052;-83
2023/06/21 08:40:46;;;;;;;23.65;21.13;;;22.10;99.90;;;;;;5071989;28;20043;-83
2023/06/21 08:43:11;;;;;;;19.75;17.85;;;22.10;99.90;;;;;;5072353;28;20036;-83
2023/06/21 08:45:37;;;;;;;17.77;15.90;;;22.20;99.90;;;;;;5056031;28;20041;-83
2023/06/21 08:48:06;;;;;;;19.45;17.30;;;22.20;99.90;;;;;;5055732;28;20041;-83
2023/06/21 08:50:34;;;;;;;18.50;16.33;;;22.30;99.90;;;;;;5055611;28;20066;-83
2023/06/21 08:53:04;;;;;;;18.73;16.77;;;22.40;99.90;;;;;;5054305;28;20123;-83
2023/06/21 08:55:31;;;;;;;16.38;14.68;;;22.50;99.90;;;;;;5055869;28;20123;-83
2023/06/21 08:57:59;;;;;;;16.33;14.63;;;22.60;99.90;;;;;;5072511;28;20652;-83
2023/06/21 09:00:45;;;;;;;16.80;13.20;;;22.70;99.90;;;;;;5071931;28;20037;-83
2023/06/21 09:03:19;;;;;;;17.23;14.55;;;22.80;99.90;;;;;;5055507;28;20044;-83
2023/06/21 09:06:04;;;;;;;14.23;12.73;;;22.80;99.90;;;;;;5072315;28;20041;-84
2023/06/21 09:08:34;;;;;;;16.10;14.02;;;22.80;99.90;;;;;;5055472;28;20072;-84
2023/06/21 09:11:00;;;;;;;16.88;14.52;;;22.80;99.90;;;;;;5071786;28;20072;-84
2023/06/21 09:13:27;;;;;;;14.90;12.00;;;22.90;99.90;;;;;;5071758;28;20035;-84
2023/06/21 09:15:55;;;;;;;14.02;12.13;;;22.90;99.90;;;;;;5072023;28;20075;-83
2023/06/21 09:18:22;;;;;;;16.50;14.60;;;22.90;99.90;;;;;;5055293;28;20048;-83
2023/06/21 09:20:49;;;;;;;16.35;14.65;;;22.90;99.90;;;;;;5054765;28;20126;-84
2023/06/21 09:23:15;;;;;;;17.98;15.30;;;23.00;99.90;;;;;;5071732;28;20090;-83
2023/06/21 09:25:42;;;;;;;15.52;13.80;;;23.10;99.90;;;;;;5071622;28;20036;-83
2023/06/21 09:28:07;;;;;;;12.30;10.73;;;23.10;99.90;;;;;;5071444;28;20044;-83
2023/06/21 09:30:33;;;;;;;13.63;11.50;;;23.10;99.90;;;;;;5071457;28;20043;-83
2023/06/21 09:32:59;;;;;;;14.70;12.93;;;23.10;99.90;;;;;;5071430;28;20130;-83
2023/06/21 09:35:25;;;;;;;14.25;11.98;;;23.10;99.90;;;;;;5071648;28;20056;-83
2023/06/21 09:37:50;;;;;;;15.63;12.88;;;23.20;99.90;;;;;;5071291;28;20043;-83
2023/06/21 09:40:16;;;;;;;14.07;12.57;;;23.40;99.90;;;;;;5071046;28;20181;-83
2023/06/21 09:42:44;;;;;;;16.40;14.32;;;23.40;99.90;;;;;;5071153;28;20047;-83
2023/06/21 09:45:17;;;;;;;15.05;11.60;;;23.50;99.90;;;;;;5071703;28;20040;-84
2023/06/21 09:47:43;;;;;;;14.27;11.65;;;23.40;99.90;;;;;;5071407;28;20045;-84
2023/06/21 09:50:10;;;;;;;14.18;11.57;;;23.50;99.90;;;;;;5054287;28;20169;-83
2023/06/21 09:52:36;;;;;;;13.77;11.95;;;23.60;99.90;;;;;;5071187;28;20036;-84
2023/06/21 09:55:02;;;;;;;14.40;11.02;;;23.60;99.90;;;;;;5071263;28;20047;-84
2023/06/21 09:57:29;;;;;;;14.57;11.50;;;23.70;99.90;;;;;;5071402;28;20048;-84
2023/06/21 09:59:55;;;;;;;13.18;10.93;;;23.80;99.90;;;;;;5053987;28;20056;-83
2023/06/21 10:02:21;;;;;;;15.18;11.65;;;23.80;99.90;;;;;;5071050;28;20047;-84
2023/06/21 10:04:47;;;;;;;14.93;11.40;;;23.80;99.90;;;;;;5070604;28;20044;-84
2023/06/21 10:07:14;;;;;;;13.60;12.20;;;23.90;99.90;;;;;;5068155;28;20064;-84
2023/06/21 10:09:41;;;;;;;13.02;11.27;;;24.00;99.90;;;;;;5052981;28;20037;-84
2023/06/21 10:12:11;;;;;;;13.40;10.98;;;24.10;99.90;;;;;;5070078;28;20119;-84
2023/06/21 10:14:39;;;;;;;14.57;11.80;;;24.20;99.90;;;;;;5070526;28;20040;-83
2023/06/21 10:17:05;;;;;;;14.13;11.07;;;24.20;99.90;;;;;;5070435;28;20187;-83
2023/06/21 10:19:32;;;;;;;13.35;10.88;;;24.30;99.90;;;;;;5070167;28;20841;-84
2023/06/21 10:22:09;;;;;;;14.77;12.23;;;24.30;99.90;;;;;;5070533;28;20537;-84
2023/06/21 10:24:48;;;;;;;11.10;9.35;;;24.20;99.90;;;;;;5053625;28;20043;-84
2023/06/21 10:27:15;;;;;;;12.23;9.35;;;24.10;99.90;;;;;;5069802;28;20046;-84
2023/06/21 10:29:43;;;;;;;11.63;8.50;;;24.00;99.90;;;;;;5069882;28;20448;-84
2023/06/21 10:32:09;;;;;;;10.70;8.60;;;23.90;99.90;;;;;;5070089;28;20036;-84
2023/06/21 10:35:16;;;;;;;12.15;9.48;;;23.90;99.90;;;;;;5070130;28;20071;-84
2023/06/21 10:38:01;;;;;;;12.80;10.18;;;23.90;99.90;;;;;;5016008;28;20080;-84
2023/06/21 10:40:28;;;;;;;11.80;10.05;;;24.00;99.90;;;;;;5048526;28;20111;-84
2023/06/21 10:42:55;;;;;;;11.70;8.68;;;24.10;99.90;;;;;;5032421;28;20052;-83
2023/06/21 10:45:21;;;;;;;12.57;9.65;;;24.10;99.90;;;;;;5048677;28;20052;-83
2023/06/21 10:47:48;;;;;;;12.35;8.73;;;24.00;99.90;;;;;;5015733;28;20048;-84
2023/06/21 10:50:14;;;;;;;11.40;9.00;;;24.00;99.90;;;;;;5065175;28;20119;-84
2023/06/21 10:52:40;;;;;;;11.93;9.15;;;24.00;99.90;;;;;;5065610;28;20037;-84
2023/06/21 10:55:06;;;;;;;10.57;9.00;;;24.10;99.90;;;;;;5065677;28;20044;-83
2023/06/21 10:57:33;;;;;;;12.02;9.15;;;24.20;99.90;;;;;;5065334;28;20049;-84
2023/06/21 11:00:03;;;;;;;11.88;8.88;;;24.30;99.90;;;;;;5065078;28;20431;-84
2023/06/21 11:02:29;;;;;;;11.98;9.63;;;24.40;99.90;;;;;;5065568;28;20048;-83
2023/06/21 11:05:16;;;;;;;12.73;9.55;;;24.40;99.90;;;;;;5032393;28;20445;-84
2023/06/21 11:07:58;;;;;;;11.45;9.07;;;24.40;99.90;;;;;;5065383;28;20127;-84
2023/06/21 11:10:30;;;;;;;11.90;9.80;;;24.40;99.90;;;;;;5015316;28;20223;-84
2023/06/21 11:12:56;;;;;;;12.70;9.48;;;24.30;99.80;;;;;;5039492;28;20430;-84
2023/06/21 11:15:24;;;;;;;11.48;9.40;;;24.30;99.90;;;;;;5070745;28;20032;-84
2023/06/21 11:18:00;;;;;;;11.75;9.10;;;24.40;99.90;;;;;;5073284;28;20036;-83
2023/06/21 11:20:26;;;;;;;10.82;8.60;;;24.50;99.90;;;;;;5071351;28;20040;-83
2023/06/21 11:23:00;;;;;;;11.77;8.77;;;24.70;99.90;;;;;;5073064;28;20043;-84
2023/06/21 11:25:26;;;;;;;12.65;9.32;;;24.80;99.30;;;;;;5053140;28;20037;-83
2023/06/21 11:28:14;;;;;;;12.40;9.63;;;25.00;98.60;;;;;;5073236;28;20043;-84
2023/06/21 11:30:59;;;;;;;11.85;9.82;;;25.10;98.00;;;;;;5053575;28;20032;-84
2023/06/21 11:33:32;;;;;;;11.77;9.18;;;25.20;97.70;;;;;;5054928;28;20036;-84
2023/06/21 11:36:21;;;;;;;11.18;7.82;;;25.30;95.70;;;;;;5051234;28;20037;-84
2023/06/21 11:39:06;;;;;;;10.95;7.88;;;25.40;93.30;;;;;;5036892;28;20047;-84
2023/06/21 11:41:44;;;;;;;11.40;7.55;;;25.50;93.40;;;;;;5052971;28;20053;-84
2023/06/21 11:44:19;;;;;;;9.82;7.15;;;25.60;92.80;;;;;;5053588;28;20406;-84
2023/06/21 11:46:45;;;;;;;10.60;7.72;;;25.80;92.60;;;;;;5053232;28;20083;-84
2023/06/21 11:49:11;;;;;;;10.00;6.80;;;25.70;90.40;;;;;;5053172;28;20073;-84
2023/06/21 11:51:59;;;;;;;10.52;7.43;;;25.70;89.60;;;;;;5052432;28;20040;-84
2023/06/21 11:54:36;;;;;;;11.13;7.55;;;25.80;91.60;;;;;;5053292;28;20044;-84
2023/06/21 11:57:06;;;;;;;10.07;7.20;;;25.90;89.20;;;;;;5053247;28;20037;-84
2023/06/21 11:59:34;;;;;;;10.63;7.75;;;26.00;88.60;;;;;;5052739;28;20098;-84
2023/06/21 12:02:20;;;;;;;10.80;7.47;;;26.20;89.70;;;;;;5069447;28;20103;-84
2023/06/21 12:04:46;;;;;;;10.50;7.22;;;26.30;90.10;;;;;;5086632;28;20037;-85
2023/06/21 12:07:12;;;;;;;10.38;7.03;;;26.30;86.30;;;;;;5069665;28;20064;-85
2023/06/21 12:09:39;;;;;;;10.57;7.07;;;26.30;83.30;;;;;;5085323;28;20134;-85
2023/06/21 12:12:09;;;;;;;10.10;6.70;;;26.20;82.60;;;;;;5085576;28;20037;-85
2023/06/21 12:14:36;;;;;;;10.20;6.50;;;26.10;84.10;;;;;;5070049;28;20547;-84
2023/06/21 12:17:03;;;;;;;9.15;5.25;;;26.10;84.00;;;;;;5056002;28;20036;-84
2023/06/21 12:19:31;;;;;;;9.57;5.32;;;26.20;85.40;;;;;;5072449;28;20080;-84
2023/06/21 12:22:02;;;;;;;9.57;5.03;;;26.40;85.70;;;;;;5055507;28;20036;-84
2023/06/21 12:24:28;;;;;;;8.15;4.88;;;26.40;84.60;;;;;;5056063;28;20051;-84
2023/06/21 12:26:57;;;;;;;7.82;5.07;;;26.50;82.70;;;;;;5055493;28;20041;-84
2023/06/21 12:29:23;;;;;;;8.63;5.57;;;26.40;80.10;;;;;;5055836;28;20048;-84
2023/06/21 12:31:49;;;;;;;8.88;5.25;;;26.40;82.70;;;;;;5072250;28;20036;-85